sensor_id;sensor_type;location;lat;lon;timestamp;P1;durP1;ratioP1;P2;durP2;ratioP2
16634;SDS011;8431;52.458;9.998;2022-10-16T00:01:06;0.82;;;0.82;;
16634;SDS011;8431;52.458;9.998;2022-10-16T00:03:36;2.15;;;1.10;;
16634;SDS011;8431;52.458;9.998;2022-10-16T00:06:03;2.38;;;1.10;;
16634;SDS011;8431;52.458;9.998;2022-10-16T00:08:31;0.80;;;0.80;;
16634;SDS011;8431;52.458;9.998;2022-10-16T00:11:00;2.35;;;0.90;;
16634;SDS011;8431;52.458;9.998;2022-10-16T00:13:29;1.77;;;1.15;;
16634;SDS011;8431;52.458;9.998;2022-10-16T00:15:57;1.05;;;1.00;;
16634;SDS011;8431;52.458;9.998;2022-10-16T00:18:25;2.53;;;1.02;;
16634;SDS011;8431;52.458;9.998;2022-10-16T00:20:53;2.78;;;1.30;;
16634;SDS011;8431;52.458;9.998;2022-10-16T00:23:20;2.55;;;1.10;;
16634;SDS011;8431;52.458;9.998;2022-10-16T00:25:54;2.60;;;1.20;;
16634;SDS011;8431;52.458;9.998;2022-10-16T00:28:23;1.60;;;1.10;;
16634;SDS011;8431;52.458;9.998;2022-10-16T00:30:50;5.40;;;1.23;;
16634;SDS011;8431;52.458;9.998;2022-10-16T00:33:18;2.67;;;1.10;;
16634;SDS011;8431;52.458;9.998;2022-10-16T00:35:45;1.77;;;1.30;;
16634;SDS011;8431;52.458;9.998;2022-10-16T00:38:12;2.17;;;1.20;;
16634;SDS011;8431;52.458;9.998;2022-10-16T00:40:39;1.40;;;1.13;;
16634;SDS011;8431;52.458;9.998;2022-10-16T00:43:10;1.63;;;1.27;;
16634;SDS011;8431;52.458;9.998;2022-10-16T00:45:41;3.53;;;1.17;;
16634;SDS011;8431;52.458;9.998;2022-10-16T00:48:10;5.65;;;1.25;;
16634;SDS011;8431;52.458;9.998;2022-10-16T00:50:40;3.35;;;1.25;;
16634;SDS011;8431;52.458;9.998;2022-10-16T00:53:09;1.63;;;1.17;;
16634;SDS011;8431;52.458;9.998;2022-10-16T00:55:37;1.50;;;1.40;;
16634;SDS011;8431;52.458;9.998;2022-10-16T00:58:04;1.05;;;0.95;;
16634;SDS011;8431;52.458;9.998;2022-10-16T01:00:32;1.75;;;1.10;;
16634;SDS011;8431;52.458;9.998;2022-10-16T01:03:01;1.20;;;1.13;;
16634;SDS011;8431;52.458;9.998;2022-10-16T01:05:30;1.92;;;1.10;;
16634;SDS011;8431;52.458;9.998;2022-10-16T01:08:06;2.70;;;1.17;;
16634;SDS011;8431;52.458;9.998;2022-10-16T01:10:40;1.38;;;0.95;;
16634;SDS011;8431;52.458;9.998;2022-10-16T01:13:11;4.22;;;1.38;;
16634;SDS011;8431;52.458;9.998;2022-10-16T01:15:44;3.50;;;1.20;;
16634;SDS011;8431;52.458;9.998;2022-10-16T01:18:18;1.38;;;1.05;;
16634;SDS011;8431;52.458;9.998;2022-10-16T01:20:53;2.92;;;1.15;;
16634;SDS011;8431;52.458;9.998;2022-10-16T01:23:27;1.80;;;1.23;;
16634;SDS011;8431;52.458;9.998;2022-10-16T01:26:20;2.75;;;1.50;;
16634;SDS011;8431;52.458;9.998;2022-10-16T01:28:59;2.78;;;1.30;;
16634;SDS011;8431;52.458;9.998;2022-10-16T01:31:31;1.55;;;1.27;;
16634;SDS011;8431;52.458;9.998;2022-10-16T01:34:03;3.42;;;1.70;;
16634;SDS011;8431;52.458;9.998;2022-10-16T01:36:35;1.40;;;1.30;;
16634;SDS011;8431;52.458;9.998;2022-10-16T01:39:05;1.25;;;1.20;;
16634;SDS011;8431;52.458;9.998;2022-10-16T01:41:36;1.75;;;1.65;;
16634;SDS011;8431;52.458;9.998;2022-10-16T01:44:08;1.67;;;1.58;;
16634;SDS011;8431;52.458;9.998;2022-10-16T01:46:41;2.22;;;1.45;;
16634;SDS011;8431;52.458;9.998;2022-10-16T01:49:09;2.03;;;1.50;;
16634;SDS011;8431;52.458;9.998;2022-10-16T01:51:38;2.72;;;1.40;;
16634;SDS011;8431;52.458;9.998;2022-10-16T01:54:06;1.58;;;1.30;;
16634;SDS011;8431;52.458;9.998;2022-10-16T01:56:35;2.28;;;1.30;;
16634;SDS011;8431;52.458;9.998;2022-10-16T01:59:06;1.77;;;1.67;;
16634;SDS011;8431;52.458;9.998;2022-10-16T02:01:37;2.97;;;1.48;;
16634;SDS011;8431;52.458;9.998;2022-10-16T02:04:09;1.70;;;1.60;;
16634;SDS011;8431;52.458;9.998;2022-10-16T02:06:39;2.75;;;1.90;;
16634;SDS011;8431;52.458;9.998;2022-10-16T02:09:06;2.65;;;1.80;;
16634;SDS011;8431;52.458;9.998;2022-10-16T02:11:33;4.82;;;2.08;;
16634;SDS011;8431;52.458;9.998;2022-10-16T02:14:01;7.47;;;2.55;;
16634;SDS011;8431;52.458;9.998;2022-10-16T02:16:34;2.35;;;2.20;;
16634;SDS011;8431;52.458;9.998;2022-10-16T02:19:02;3.95;;;2.35;;
16634;SDS011;8431;52.458;9.998;2022-10-16T02:21:33;3.17;;;2.38;;
16634;SDS011;8431;52.458;9.998;2022-10-16T02:24:07;3.92;;;2.85;;
16634;SDS011;8431;52.458;9.998;2022-10-16T02:26:40;2.97;;;2.72;;
16634;SDS011;8431;52.458;9.998;2022-10-16T02:29:12;2.83;;;2.55;;
16634;SDS011;8431;52.458;9.998;2022-10-16T02:31:45;2.95;;;2.60;;
16634;SDS011;8431;52.458;9.998;2022-10-16T02:34:16;4.03;;;3.15;;
16634;SDS011;8431;52.458;9.998;2022-10-16T02:36:44;4.30;;;3.03;;
16634;SDS011;8431;52.458;9.998;2022-10-16T02:39:13;3.28;;;3.00;;
16634;SDS011;8431;52.458;9.998;2022-10-16T02:41:41;3.75;;;3.35;;
16634;SDS011;8431;52.458;9.998;2022-10-16T02:44:08;3.17;;;2.97;;
16634;SDS011;8431;52.458;9.998;2022-10-16T02:46:35;3.55;;;3.35;;
16634;SDS011;8431;52.458;9.998;2022-10-16T02:49:04;3.08;;;2.85;;
16634;SDS011;8431;52.458;9.998;2022-10-16T02:51:31;3.50;;;3.28;;
16634;SDS011;8431;52.458;9.998;2022-10-16T02:53:58;5.22;;;3.47;;
16634;SDS011;8431;52.458;9.998;2022-10-16T02:56:25;3.58;;;3.15;;
16634;SDS011;8431;52.458;9.998;2022-10-16T02:58:52;4.70;;;3.25;;
16634;SDS011;8431;52.458;9.998;2022-10-16T03:01:19;6.15;;;3.28;;
16634;SDS011;8431;52.458;9.998;2022-10-16T03:03:46;4.45;;;3.28;;
16634;SDS011;8431;52.458;9.998;2022-10-16T03:06:14;3.63;;;3.25;;
16634;SDS011;8431;52.458;9.998;2022-10-16T03:08:42;5.15;;;3.28;;
16634;SDS011;8431;52.458;9.998;2022-10-16T03:11:09;3.35;;;3.10;;
16634;SDS011;8431;52.458;9.998;2022-10-16T03:13:36;3.30;;;3.08;;
16634;SDS011;8431;52.458;9.998;2022-10-16T03:16:03;3.25;;;2.97;;
16634;SDS011;8431;52.458;9.998;2022-10-16T03:18:30;3.60;;;3.30;;
16634;SDS011;8431;52.458;9.998;2022-10-16T03:20:57;3.35;;;3.05;;
16634;SDS011;8431;52.458;9.998;2022-10-16T03:23:25;4.68;;;2.95;;
16634;SDS011;8431;52.458;9.998;2022-10-16T03:25:53;3.75;;;3.45;;
16634;SDS011;8431;52.458;9.998;2022-10-16T03:28:20;4.03;;;2.97;;
16634;SDS011;8431;52.458;9.998;2022-10-16T03:30:47;4.35;;;2.83;;
16634;SDS011;8431;52.458;9.998;2022-10-16T03:33:14;4.38;;;3.35;;
16634;SDS011;8431;52.458;9.998;2022-10-16T03:35:41;4.03;;;3.05;;
16634;SDS011;8431;52.458;9.998;2022-10-16T03:38:08;6.75;;;3.10;;
16634;SDS011;8431;52.458;9.998;2022-10-16T03:40:36;3.55;;;3.25;;
16634;SDS011;8431;52.458;9.998;2022-10-16T03:43:03;3.42;;;3.15;;
16634;SDS011;8431;52.458;9.998;2022-10-16T03:45:30;3.30;;;3.00;;
16634;SDS011;8431;52.458;9.998;2022-10-16T03:47:57;3.13;;;2.92;;
16634;SDS011;8431;52.458;9.998;2022-10-16T03:50:24;2.63;;;2.42;;
16634;SDS011;8431;52.458;9.998;2022-10-16T03:52:51;3.53;;;2.50;;
16634;SDS011;8431;52.458;9.998;2022-10-16T03:55:18;4.95;;;2.72;;
16634;SDS011;8431;52.458;9.998;2022-10-16T03:57:46;2.72;;;2.50;;
16634;SDS011;8431;52.458;9.998;2022-10-16T04:00:13;2.78;;;2.55;;
16634;SDS011;8431;52.458;9.998;2022-10-16T04:02:40;3.65;;;2.30;;
16634;SDS011;8431;52.458;9.998;2022-10-16T04:05:07;2.83;;;2.35;;
16634;SDS011;8431;52.458;9.998;2022-10-16T04:07:35;3.53;;;2.75;;
16634;SDS011;8431;52.458;9.998;2022-10-16T04:10:03;6.85;;;2.90;;
16634;SDS011;8431;52.458;9.998;2022-10-16T04:12:30;3.47;;;2.28;;
16634;SDS011;8431;52.458;9.998;2022-10-16T04:14:59;5.00;;;2.40;;
16634;SDS011;8431;52.458;9.998;2022-10-16T04:17:26;2.78;;;2.58;;
16634;SDS011;8431;52.458;9.998;2022-10-16T04:19:53;5.20;;;2.60;;
16634;SDS011;8431;52.458;9.998;2022-10-16T04:22:20;3.30;;;3.00;;
16634;SDS011;8431;52.458;9.998;2022-10-16T04:24:47;7.13;;;3.72;;
16634;SDS011;8431;52.458;9.998;2022-10-16T04:27:14;4.32;;;3.60;;
16634;SDS011;8431;52.458;9.998;2022-10-16T04:29:41;4.30;;;3.80;;
16634;SDS011;8431;52.458;9.998;2022-10-16T04:32:10;5.47;;;3.78;;
16634;SDS011;8431;52.458;9.998;2022-10-16T04:34:38;5.53;;;4.03;;
16634;SDS011;8431;52.458;9.998;2022-10-16T04:37:05;4.10;;;3.70;;
16634;SDS011;8431;52.458;9.998;2022-10-16T04:39:32;4.82;;;3.47;;
16634;SDS011;8431;52.458;9.998;2022-10-16T04:41:59;3.83;;;3.53;;
16634;SDS011;8431;52.458;9.998;2022-10-16T04:44:27;3.78;;;3.30;;
16634;SDS011;8431;52.458;9.998;2022-10-16T04:46:54;4.10;;;3.70;;
16634;SDS011;8431;52.458;9.998;2022-10-16T04:49:22;3.90;;;3.60;;
16634;SDS011;8431;52.458;9.998;2022-10-16T04:51:50;3.50;;;3.20;;
16634;SDS011;8431;52.458;9.998;2022-10-16T04:54:17;6.65;;;3.67;;
16634;SDS011;8431;52.458;9.998;2022-10-16T04:56:45;4.85;;;3.47;;
16634;SDS011;8431;52.458;9.998;2022-10-16T04:59:13;3.90;;;3.50;;
16634;SDS011;8431;52.458;9.998;2022-10-16T05:01:40;3.42;;;3.22;;
16634;SDS011;8431;52.458;9.998;2022-10-16T05:04:07;4.47;;;3.70;;
16634;SDS011;8431;52.458;9.998;2022-10-16T05:06:37;6.13;;;3.90;;
16634;SDS011;8431;52.458;9.998;2022-10-16T05:09:04;4.85;;;3.80;;
16634;SDS011;8431;52.458;9.998;2022-10-16T05:11:31;4.07;;;3.70;;
16634;SDS011;8431;52.458;9.998;2022-10-16T05:13:58;5.10;;;4.20;;
16634;SDS011;8431;52.458;9.998;2022-10-16T05:16:25;4.07;;;3.70;;
16634;SDS011;8431;52.458;9.998;2022-10-16T05:18:52;4.75;;;4.15;;
16634;SDS011;8431;52.458;9.998;2022-10-16T05:21:19;6.00;;;4.18;;
16634;SDS011;8431;52.458;9.998;2022-10-16T05:23:48;4.82;;;4.30;;
16634;SDS011;8431;52.458;9.998;2022-10-16T05:26:15;5.75;;;4.40;;
16634;SDS011;8431;52.458;9.998;2022-10-16T05:28:42;4.43;;;4.03;;
16634;SDS011;8431;52.458;9.998;2022-10-16T05:31:09;5.55;;;4.05;;
16634;SDS011;8431;52.458;9.998;2022-10-16T05:33:37;5.55;;;3.97;;
16634;SDS011;8431;52.458;9.998;2022-10-16T05:36:04;5.75;;;4.43;;
16634;SDS011;8431;52.458;9.998;2022-10-16T05:38:33;8.40;;;4.20;;
16634;SDS011;8431;52.458;9.998;2022-10-16T05:41:01;5.10;;;3.83;;
16634;SDS011;8431;52.458;9.998;2022-10-16T05:43:29;5.25;;;4.03;;
16634;SDS011;8431;52.458;9.998;2022-10-16T05:45:57;6.55;;;3.88;;
16634;SDS011;8431;52.458;9.998;2022-10-16T05:48:27;5.93;;;4.13;;
16634;SDS011;8431;52.458;9.998;2022-10-16T05:50:58;6.20;;;3.92;;
16634;SDS011;8431;52.458;9.998;2022-10-16T05:53:27;3.85;;;3.40;;
16634;SDS011;8431;52.458;9.998;2022-10-16T05:55:55;4.90;;;3.05;;
16634;SDS011;8431;52.458;9.998;2022-10-16T05:58:24;4.40;;;3.28;;
16634;SDS011;8431;52.458;9.998;2022-10-16T06:00:54;5.00;;;3.40;;
16634;SDS011;8431;52.458;9.998;2022-10-16T06:03:22;7.38;;;3.58;;
16634;SDS011;8431;52.458;9.998;2022-10-16T06:05:50;4.40;;;3.88;;
16634;SDS011;8431;52.458;9.998;2022-10-16T06:08:17;6.03;;;3.78;;
16634;SDS011;8431;52.458;9.998;2022-10-16T06:10:44;6.20;;;3.65;;
16634;SDS011;8431;52.458;9.998;2022-10-16T06:13:12;5.22;;;3.67;;
16634;SDS011;8431;52.458;9.998;2022-10-16T06:15:41;4.10;;;3.70;;
16634;SDS011;8431;52.458;9.998;2022-10-16T06:18:09;4.05;;;3.75;;
16634;SDS011;8431;52.458;9.998;2022-10-16T06:20:36;4.43;;;4.00;;
16634;SDS011;8431;52.458;9.998;2022-10-16T06:23:04;5.40;;;4.38;;
16634;SDS011;8431;52.458;9.998;2022-10-16T06:25:30;7.78;;;4.40;;
16634;SDS011;8431;52.458;9.998;2022-10-16T06:27:58;4.65;;;4.25;;
16634;SDS011;8431;52.458;9.998;2022-10-16T06:30:25;5.22;;;4.40;;
16634;SDS011;8431;52.458;9.998;2022-10-16T06:32:53;4.38;;;4.07;;
16634;SDS011;8431;52.458;9.998;2022-10-16T06:35:20;4.95;;;4.45;;
16634;SDS011;8431;52.458;9.998;2022-10-16T06:37:47;4.70;;;4.30;;
16634;SDS011;8431;52.458;9.998;2022-10-16T06:40:14;5.60;;;4.15;;
16634;SDS011;8431;52.458;9.998;2022-10-16T06:42:41;5.55;;;4.63;;
16634;SDS011;8431;52.458;9.998;2022-10-16T06:45:09;5.28;;;4.78;;
16634;SDS011;8431;52.458;9.998;2022-10-16T06:47:36;7.28;;;4.60;;
16634;SDS011;8431;52.458;9.998;2022-10-16T06:50:05;5.18;;;4.68;;
16634;SDS011;8431;52.458;9.998;2022-10-16T06:52:33;6.03;;;5.35;;
16634;SDS011;8431;52.458;9.998;2022-10-16T06:55:00;5.50;;;4.93;;
16634;SDS011;8431;52.458;9.998;2022-10-16T06:57:28;5.60;;;5.10;;
16634;SDS011;8431;52.458;9.998;2022-10-16T06:59:55;6.50;;;5.90;;
16634;SDS011;8431;52.458;9.998;2022-10-16T07:02:22;5.35;;;4.90;;
16634;SDS011;8431;52.458;9.998;2022-10-16T07:04:49;5.43;;;4.28;;
16634;SDS011;8431;52.458;9.998;2022-10-16T07:07:17;7.55;;;3.95;;
16634;SDS011;8431;52.458;9.998;2022-10-16T07:09:44;4.63;;;3.50;;
16634;SDS011;8431;52.458;9.998;2022-10-16T07:12:11;3.13;;;2.80;;
16634;SDS011;8431;52.458;9.998;2022-10-16T07:14:38;3.58;;;2.92;;
16634;SDS011;8431;52.458;9.998;2022-10-16T07:17:05;3.10;;;2.38;;
16634;SDS011;8431;52.458;9.998;2022-10-16T07:19:32;2.50;;;2.30;;
16634;SDS011;8431;52.458;9.998;2022-10-16T07:21:59;2.60;;;2.10;;
16634;SDS011;8431;52.458;9.998;2022-10-16T07:24:28;2.40;;;2.20;;
16634;SDS011;8431;52.458;9.998;2022-10-16T07:26:55;2.58;;;2.38;;
16634;SDS011;8431;52.458;9.998;2022-10-16T07:29:22;2.42;;;2.10;;
16634;SDS011;8431;52.458;9.998;2022-10-16T07:31:49;3.22;;;2.20;;
16634;SDS011;8431;52.458;9.998;2022-10-16T07:34:17;2.20;;;2.10;;
16634;SDS011;8431;52.458;9.998;2022-10-16T07:36:47;2.65;;;2.40;;
16634;SDS011;8431;52.458;9.998;2022-10-16T07:39:15;2.53;;;2.10;;
16634;SDS011;8431;52.458;9.998;2022-10-16T07:41:44;2.45;;;2.25;;
16634;SDS011;8431;52.458;9.998;2022-10-16T07:44:11;2.10;;;2.00;;
16634;SDS011;8431;52.458;9.998;2022-10-16T07:46:38;2.97;;;2.10;;
16634;SDS011;8431;52.458;9.998;2022-10-16T07:49:05;3.63;;;2.10;;
16634;SDS011;8431;52.458;9.998;2022-10-16T07:51:32;2.75;;;2.10;;
16634;SDS011;8431;52.458;9.998;2022-10-16T07:53:59;2.83;;;2.28;;
16634;SDS011;8431;52.458;9.998;2022-10-16T07:56:26;1.83;;;1.73;;
16634;SDS011;8431;52.458;9.998;2022-10-16T07:58:55;2.40;;;2.00;;
16634;SDS011;8431;52.458;9.998;2022-10-16T08:01:22;2.20;;;1.75;;
16634;SDS011;8431;52.458;9.998;2022-10-16T08:03:49;1.98;;;1.88;;
16634;SDS011;8431;52.458;9.998;2022-10-16T08:06:17;2.10;;;1.90;;
16634;SDS011;8431;52.458;9.998;2022-10-16T08:08:46;2.58;;;1.95;;
16634;SDS011;8431;52.458;9.998;2022-10-16T08:11:13;1.83;;;1.73;;
16634;SDS011;8431;52.458;9.998;2022-10-16T08:13:41;1.90;;;1.80;;
16634;SDS011;8431;52.458;9.998;2022-10-16T08:16:09;3.22;;;1.77;;
16634;SDS011;8431;52.458;9.998;2022-10-16T08:18:37;2.15;;;1.90;;
16634;SDS011;8431;52.458;9.998;2022-10-16T08:21:05;1.70;;;1.60;;
16634;SDS011;8431;52.458;9.998;2022-10-16T08:23:38;1.92;;;1.83;;
16634;SDS011;8431;52.458;9.998;2022-10-16T08:26:06;2.50;;;1.80;;
16634;SDS011;8431;52.458;9.998;2022-10-16T08:28:34;2.80;;;1.60;;
16634;SDS011;8431;52.458;9.998;2022-10-16T08:31:05;1.95;;;1.85;;
16634;SDS011;8431;52.458;9.998;2022-10-16T08:33:38;2.97;;;1.77;;
16634;SDS011;8431;52.458;9.998;2022-10-16T08:36:05;2.70;;;1.45;;
16634;SDS011;8431;52.458;9.998;2022-10-16T08:38:33;1.13;;;1.10;;
16634;SDS011;8431;52.458;9.998;2022-10-16T08:41:07;2.67;;;1.30;;
16634;SDS011;8431;52.458;9.998;2022-10-16T08:44:01;1.95;;;1.35;;
16634;SDS011;8431;52.458;9.998;2022-10-16T08:47:05;1.05;;;1.05;;
16634;SDS011;8431;52.458;9.998;2022-10-16T08:49:39;1.35;;;1.20;;
16634;SDS011;8431;52.458;9.998;2022-10-16T08:52:14;1.05;;;0.93;;
16634;SDS011;8431;52.458;9.998;2022-10-16T08:54:41;2.13;;;1.13;;
16634;SDS011;8431;52.458;9.998;2022-10-16T08:57:12;1.70;;;1.17;;
16634;SDS011;8431;52.458;9.998;2022-10-16T08:59:42;1.65;;;1.00;;
16634;SDS011;8431;52.458;9.998;2022-10-16T09:02:22;1.08;;;1.05;;
16634;SDS011;8431;52.458;9.998;2022-10-16T09:05:05;3.13;;;0.95;;
16634;SDS011;8431;52.458;9.998;2022-10-16T09:07:54;0.80;;;0.80;;
16634;SDS011;8431;52.458;9.998;2022-10-16T09:10:33;1.52;;;1.23;;
16634;SDS011;8431;52.458;9.998;2022-10-16T09:13:10;0.90;;;0.90;;
16634;SDS011;8431;52.458;9.998;2022-10-16T09:15:46;0.90;;;0.90;;
16634;SDS011;8431;52.458;9.998;2022-10-16T09:18:21;0.90;;;0.90;;
16634;SDS011;8431;52.458;9.998;2022-10-16T09:20:56;1.23;;;1.13;;
16634;SDS011;8431;52.458;9.998;2022-10-16T09:23:28;0.90;;;0.90;;
16634;SDS011;8431;52.458;9.998;2022-10-16T09:25:56;1.02;;;0.75;;
16634;SDS011;8431;52.458;9.998;2022-10-16T09:28:25;1.10;;;1.00;;
16634;SDS011;8431;52.458;9.998;2022-10-16T09:30:52;2.08;;;1.20;;
16634;SDS011;8431;52.458;9.998;2022-10-16T09:33:22;1.00;;;1.00;;
16634;SDS011;8431;52.458;9.998;2022-10-16T09:35:52;3.05;;;0.90;;
16634;SDS011;8431;52.458;9.998;2022-10-16T09:38:23;1.25;;;0.82;;
16634;SDS011;8431;52.458;9.998;2022-10-16T09:40:53;2.47;;;1.33;;
16634;SDS011;8431;52.458;9.998;2022-10-16T09:43:22;0.80;;;0.80;;
16634;SDS011;8431;52.458;9.998;2022-10-16T09:45:56;0.93;;;0.93;;
16634;SDS011;8431;52.458;9.998;2022-10-16T09:48:27;1.15;;;0.73;;
16634;SDS011;8431;52.458;9.998;2022-10-16T09:50:59;2.10;;;0.80;;
16634;SDS011;8431;52.458;9.998;2022-10-16T09:53:40;1.02;;;0.90;;
16634;SDS011;8431;52.458;9.998;2022-10-16T09:56:09;0.70;;;0.68;;
16634;SDS011;8431;52.458;9.998;2022-10-16T09:58:41;1.98;;;1.45;;
16634;SDS011;8431;52.458;9.998;2022-10-16T10:01:12;0.80;;;0.80;;
16634;SDS011;8431;52.458;9.998;2022-10-16T10:03:42;0.98;;;0.95;;
16634;SDS011;8431;52.458;9.998;2022-10-16T10:06:17;0.70;;;0.70;;
16634;SDS011;8431;52.458;9.998;2022-10-16T10:08:55;1.75;;;1.08;;
16634;SDS011;8431;52.458;9.998;2022-10-16T10:11:40;2.40;;;0.90;;
16634;SDS011;8431;52.458;9.998;2022-10-16T10:17:07;1.77;;;0.85;;
16634;SDS011;8431;52.458;9.998;2022-10-16T10:19:39;1.55;;;0.80;;
16634;SDS011;8431;52.458;9.998;2022-10-16T10:22:17;1.10;;;0.77;;
16634;SDS011;8431;52.458;9.998;2022-10-16T10:24:56;0.70;;;0.70;;
16634;SDS011;8431;52.458;9.998;2022-10-16T10:27:29;1.08;;;0.68;;
16634;SDS011;8431;52.458;9.998;2022-10-16T10:30:05;3.00;;;0.90;;
16634;SDS011;8431;52.458;9.998;2022-10-16T10:32:43;2.28;;;0.90;;
16634;SDS011;8431;52.458;9.998;2022-10-16T10:35:24;2.65;;;1.00;;
16634;SDS011;8431;52.458;9.998;2022-10-16T10:38:02;1.27;;;0.73;;
16634;SDS011;8431;52.458;9.998;2022-10-16T10:40:39;1.40;;;0.90;;
16634;SDS011;8431;52.458;9.998;2022-10-16T10:43:14;1.65;;;0.70;;
16634;SDS011;8431;52.458;9.998;2022-10-16T10:45:51;1.30;;;1.05;;
16634;SDS011;8431;52.458;9.998;2022-10-16T10:48:29;1.52;;;0.90;;
16634;SDS011;8431;52.458;9.998;2022-10-16T10:51:19;1.00;;;0.80;;
16634;SDS011;8431;52.458;9.998;2022-10-16T10:53:55;4.30;;;0.88;;
16634;SDS011;8431;52.458;9.998;2022-10-16T10:56:37;0.98;;;0.70;;
16634;SDS011;8431;52.458;9.998;2022-10-16T10:59:23;0.98;;;0.70;;
16634;SDS011;8431;52.458;9.998;2022-10-16T11:02:04;4.47;;;0.93;;
16634;SDS011;8431;52.458;9.998;2022-10-16T11:05:00;2.95;;;0.80;;
16634;SDS011;8431;52.458;9.998;2022-10-16T11:07:49;2.60;;;0.60;;
16634;SDS011;8431;52.458;9.998;2022-10-16T11:10:21;2.05;;;0.88;;
16634;SDS011;8431;52.458;9.998;2022-10-16T11:12:52;1.67;;;0.90;;
16634;SDS011;8431;52.458;9.998;2022-10-16T11:15:25;0.90;;;0.90;;
16634;SDS011;8431;52.458;9.998;2022-10-16T11:17:57;1.73;;;0.90;;
16634;SDS011;8431;52.458;9.998;2022-10-16T11:20:31;1.15;;;1.00;;
16634;SDS011;8431;52.458;9.998;2022-10-16T11:23:05;1.00;;;0.90;;
16634;SDS011;8431;52.458;9.998;2022-10-16T11:25:38;2.78;;;1.00;;
16634;SDS011;8431;52.458;9.998;2022-10-16T11:28:08;1.90;;;0.80;;
16634;SDS011;8431;52.458;9.998;2022-10-16T11:30:39;2.85;;;0.82;;
16634;SDS011;8431;52.458;9.998;2022-10-16T11:33:19;1.95;;;0.90;;
16634;SDS011;8431;52.458;9.998;2022-10-16T11:35:53;2.22;;;0.90;;
16634;SDS011;8431;52.458;9.998;2022-10-16T11:38:28;0.88;;;0.77;;
16634;SDS011;8431;52.458;9.998;2022-10-16T11:41:00;1.38;;;0.70;;
16634;SDS011;8431;52.458;9.998;2022-10-16T11:43:32;1.63;;;0.75;;
16634;SDS011;8431;52.458;9.998;2022-10-16T11:46:04;1.05;;;0.77;;
16634;SDS011;8431;52.458;9.998;2022-10-16T11:48:39;2.28;;;1.05;;
16634;SDS011;8431;52.458;9.998;2022-10-16T11:51:14;0.85;;;0.75;;
16634;SDS011;8431;52.458;9.998;2022-10-16T11:53:51;3.40;;;1.00;;
16634;SDS011;8431;52.458;9.998;2022-10-16T11:56:24;2.42;;;0.90;;
16634;SDS011;8431;52.458;9.998;2022-10-16T11:58:54;2.88;;;0.80;;
16634;SDS011;8431;52.458;9.998;2022-10-16T12:01:27;1.45;;;0.57;;
16634;SDS011;8431;52.458;9.998;2022-10-16T12:04:06;1.58;;;0.95;;
16634;SDS011;8431;52.458;9.998;2022-10-16T12:06:48;3.05;;;0.70;;
16634;SDS011;8431;52.458;9.998;2022-10-16T12:09:22;1.88;;;0.98;;
16634;SDS011;8431;52.458;9.998;2022-10-16T12:11:53;1.38;;;0.98;;
16634;SDS011;8431;52.458;9.998;2022-10-16T12:14:34;1.83;;;0.90;;
16634;SDS011;8431;52.458;9.998;2022-10-16T12:17:04;2.35;;;0.80;;
16634;SDS011;8431;52.458;9.998;2022-10-16T12:19:56;1.42;;;0.73;;
16634;SDS011;8431;52.458;9.998;2022-10-16T12:22:26;4.50;;;0.82;;
16634;SDS011;8431;52.458;9.998;2022-10-16T12:24:57;2.50;;;0.80;;
16634;SDS011;8431;52.458;9.998;2022-10-16T12:27:27;1.70;;;1.00;;
16634;SDS011;8431;52.458;9.998;2022-10-16T12:29:56;1.52;;;0.90;;
16634;SDS011;8431;52.458;9.998;2022-10-16T12:32:29;1.35;;;0.70;;
16634;SDS011;8431;52.458;9.998;2022-10-16T12:34:59;0.82;;;0.80;;
16634;SDS011;8431;52.458;9.998;2022-10-16T12:37:27;1.55;;;0.88;;
16634;SDS011;8431;52.458;9.998;2022-10-16T12:39:58;0.73;;;0.70;;
16634;SDS011;8431;52.458;9.998;2022-10-16T12:42:37;0.70;;;0.70;;
16634;SDS011;8431;52.458;9.998;2022-10-16T12:45:21;1.58;;;0.82;;
16634;SDS011;8431;52.458;9.998;2022-10-16T12:47:54;0.57;;;0.57;;
16634;SDS011;8431;52.458;9.998;2022-10-16T12:50:29;3.53;;;0.70;;
16634;SDS011;8431;52.458;9.998;2022-10-16T12:52:59;0.65;;;0.63;;
16634;SDS011;8431;52.458;9.998;2022-10-16T12:55:30;2.33;;;0.90;;
16634;SDS011;8431;52.458;9.998;2022-10-16T12:58:08;3.00;;;0.80;;
16634;SDS011;8431;52.458;9.998;2022-10-16T13:00:43;1.95;;;0.90;;
16634;SDS011;8431;52.458;9.998;2022-10-16T13:03:27;0.60;;;0.57;;
16634;SDS011;8431;52.458;9.998;2022-10-16T13:06:16;0.77;;;0.70;;
16634;SDS011;8431;52.458;9.998;2022-10-16T13:09:02;1.13;;;0.85;;
16634;SDS011;8431;52.458;9.998;2022-10-16T13:11:46;0.40;;;0.40;;
16634;SDS011;8431;52.458;9.998;2022-10-16T13:14:53;1.65;;;0.85;;
16634;SDS011;8431;52.458;9.998;2022-10-16T13:17:36;2.67;;;0.70;;
16634;SDS011;8431;52.458;9.998;2022-10-16T13:20:11;1.15;;;0.60;;
16634;SDS011;8431;52.458;9.998;2022-10-16T13:22:47;1.35;;;0.60;;
16634;SDS011;8431;52.458;9.998;2022-10-16T13:25:23;1.77;;;0.75;;
16634;SDS011;8431;52.458;9.998;2022-10-16T13:27:59;0.73;;;0.73;;
16634;SDS011;8431;52.458;9.998;2022-10-16T13:30:28;4.15;;;0.80;;
16634;SDS011;8431;52.458;9.998;2022-10-16T13:32:59;1.80;;;1.20;;
16634;SDS011;8431;52.458;9.998;2022-10-16T13:35:31;1.00;;;0.88;;
16634;SDS011;8431;52.458;9.998;2022-10-16T13:38:11;1.95;;;1.13;;
16634;SDS011;8431;52.458;9.998;2022-10-16T13:40:50;0.77;;;0.73;;
16634;SDS011;8431;52.458;9.998;2022-10-16T13:43:20;2.35;;;0.90;;
16634;SDS011;8431;52.458;9.998;2022-10-16T13:45:55;0.60;;;0.60;;
16634;SDS011;8431;52.458;9.998;2022-10-16T13:48:23;1.60;;;0.95;;
16634;SDS011;8431;52.458;9.998;2022-10-16T13:51:01;2.20;;;0.70;;
16634;SDS011;8431;52.458;9.998;2022-10-16T13:53:33;1.67;;;0.75;;
16634;SDS011;8431;52.458;9.998;2022-10-16T13:56:05;1.88;;;1.13;;
16634;SDS011;8431;52.458;9.998;2022-10-16T13:58:35;1.70;;;1.10;;
16634;SDS011;8431;52.458;9.998;2022-10-16T14:01:06;3.75;;;0.93;;
16634;SDS011;8431;52.458;9.998;2022-10-16T14:03:43;0.70;;;0.70;;
16634;SDS011;8431;52.458;9.998;2022-10-16T14:06:12;1.23;;;0.73;;
16634;SDS011;8431;52.458;9.998;2022-10-16T14:08:41;0.80;;;0.63;;
16634;SDS011;8431;52.458;9.998;2022-10-16T14:11:11;0.90;;;0.63;;
16634;SDS011;8431;52.458;9.998;2022-10-16T14:13:42;4.10;;;1.38;;
16634;SDS011;8431;52.458;9.998;2022-10-16T14:16:16;3.67;;;0.95;;
16634;SDS011;8431;52.458;9.998;2022-10-16T14:18:45;1.63;;;0.88;;
16634;SDS011;8431;52.458;9.998;2022-10-16T14:21:21;1.25;;;1.00;;
16634;SDS011;8431;52.458;9.998;2022-10-16T14:23:49;1.95;;;1.02;;
16634;SDS011;8431;52.458;9.998;2022-10-16T14:26:17;2.50;;;1.02;;
16634;SDS011;8431;52.458;9.998;2022-10-16T14:28:47;2.03;;;0.80;;
16634;SDS011;8431;52.458;9.998;2022-10-16T14:31:26;6.43;;;0.90;;
16634;SDS011;8431;52.458;9.998;2022-10-16T14:33:54;2.25;;;1.10;;
16634;SDS011;8431;52.458;9.998;2022-10-16T14:36:22;1.45;;;0.82;;
16634;SDS011;8431;52.458;9.998;2022-10-16T14:38:53;1.00;;;0.82;;
16634;SDS011;8431;52.458;9.998;2022-10-16T14:41:27;6.28;;;1.08;;
16634;SDS011;8431;52.458;9.998;2022-10-16T14:43:57;0.98;;;0.70;;
16634;SDS011;8431;52.458;9.998;2022-10-16T14:46:30;1.55;;;0.80;;
16634;SDS011;8431;52.458;9.998;2022-10-16T14:49:00;1.85;;;1.08;;
16634;SDS011;8431;52.458;9.998;2022-10-16T14:51:30;1.45;;;1.27;;
16634;SDS011;8431;52.458;9.998;2022-10-16T14:53:57;4.40;;;1.23;;
16634;SDS011;8431;52.458;9.998;2022-10-16T14:56:25;1.25;;;0.90;;
16634;SDS011;8431;52.458;9.998;2022-10-16T14:58:57;1.70;;;0.65;;
16634;SDS011;8431;52.458;9.998;2022-10-16T15:01:24;1.80;;;0.90;;
16634;SDS011;8431;52.458;9.998;2022-10-16T15:03:51;1.95;;;1.10;;
16634;SDS011;8431;52.458;9.998;2022-10-16T15:06:20;1.23;;;1.13;;
16634;SDS011;8431;52.458;9.998;2022-10-16T15:08:48;2.15;;;1.00;;
16634;SDS011;8431;52.458;9.998;2022-10-16T15:11:15;3.03;;;1.00;;
16634;SDS011;8431;52.458;9.998;2022-10-16T15:13:44;2.33;;;1.00;;
16634;SDS011;8431;52.458;9.998;2022-10-16T15:16:13;0.95;;;0.70;;
16634;SDS011;8431;52.458;9.998;2022-10-16T15:18:41;0.77;;;0.77;;
16634;SDS011;8431;52.458;9.998;2022-10-16T15:21:08;1.38;;;0.98;;
16634;SDS011;8431;52.458;9.998;2022-10-16T15:23:48;1.13;;;0.85;;
16634;SDS011;8431;52.458;9.998;2022-10-16T15:26:15;0.80;;;0.80;;